Time;durP1;ratioP1;P1;durP2;ratioP2;P2;SDS_P1;SDS_P2;PMS_P1;PMS_P2;Temp;Humidity;BMP_temperature;BMP_pressure;BME280_temperature;BME280_humidity;BME280_pressure;Samples;Min_cycle;Max_cycle;Signal;HPM_P1;HPM_P2
2022/07/25 00:00:35;;;;;;;;;;;;;;;;;;4916543;29;19921;-80
2022/07/25 00:03:00;;;;;;;;;;;;;;;;;;4945548;29;19915;-79
2022/07/25 00:05:25;;;;;;;;;;;;;;;;;;4936480;29;19914;-79
2022/07/25 00:07:51;;;;;;;;;;;;;;;;;;4951234;29;19965;-80
2022/07/25 00:10:16;;;;;;;;;;;;;;;;;;4951443;29;19915;-80
2022/07/25 00:12:42;;;;;;;;;;;;;;;;;;4951326;29;19914;-80
2022/07/25 00:15:07;;;;;;;;;;;;;;;;;;4935303;29;19915;-81
2022/07/25 00:17:32;;;;;;;;;;;;;;;;;;4936984;29;19962;-81
2022/07/25 00:19:58;;;;;;;;;;;;;;;;;;4921678;29;20301;-82
2022/07/25 00:22:23;;;;;;;;;;;;;;;;;;4935267;29;19918;-82
2022/07/25 00:24:48;;;;;;;;;;;;;;;;;;4934897;29;19915;-82
2022/07/25 00:27:14;;;;;;;;;;;;;;;;;;4935110;29;20374;-81
2022/07/25 00:29:39;;;;;;;;;;;;;;;;;;4936089;29;19914;-82
2022/07/25 00:32:04;;;;;;;;;;;;;;;;;;4936280;29;19915;-80
2022/07/25 00:34:30;;;;;;;;;;;;;;;;;;4935433;29;20370;-79
2022/07/25 00:36:55;;;;;;;;;;;;;;;;;;4950850;29;19914;-79
2022/07/25 00:39:21;;;;;;;;;;;;;;;;;;4934956;29;19915;-80
2022/07/25 00:41:46;;;;;;;;;;;;;;;;;;4936587;29;20465;-81
2022/07/25 00:44:11;;;;;;;;;;;;;;;;;;4934613;29;19922;-81
2022/07/25 00:46:37;;;;;;;;;;;;;;;;;;4950618;29;19915;-79
2022/07/25 00:49:02;;;;;;;;;;;;;;;;;;4936001;29;20276;-82
2022/07/25 00:51:27;;;;;;;;;;;;;;;;;;4933924;29;19918;-83
2022/07/25 00:53:53;;;;;;;;;;;;;;;;;;4935508;29;19919;-81
2022/07/25 00:56:18;;;;;;;;;;;;;;;;;;4934352;29;20306;-80
2022/07/25 00:58:44;;;;;;;;;;;;;;;;;;4918916;29;19966;-81
2022/07/25 01:01:09;;;;;;;;;;;;;;;;;;4918571;29;19923;-79
2022/07/25 01:03:35;;;;;;;;;;;;;;;;;;4934032;29;19962;-80
2022/07/25 01:06:00;;;;;;;;;;;;;;;;;;4933625;29;19919;-81
2022/07/25 01:08:25;;;;;;;;;;;;;;;;;;4934507;29;19939;-81
2022/07/25 01:10:51;;;;;;;;;;;;;;;;;;4934500;29;19922;-80
2022/07/25 01:13:16;;;;;;;;;;;;;;;;;;4949971;28;19919;-79
2022/07/25 01:15:41;;;;;;;;;;;;;;;;;;4949983;28;19918;-80
2022/07/25 01:18:07;;;;;;;;;;;;;;;;;;4934341;29;19922;-80
2022/07/25 01:20:32;;;;;;;;;;;;;;;;;;4934679;29;19997;-80
2022/07/25 01:22:58;;;;;;;;;;;;;;;;;;4949765;28;19975;-80
2022/07/25 01:25:23;;;;;;;;;;;;;;;;;;4950053;28;19921;-81
2022/07/25 01:27:48;;;;;;;;;;;;;;;;;;4935154;29;20366;-81
2022/07/25 01:30:14;;;;;;;;;;;;;;;;;;4933883;29;19966;-81
2022/07/25 01:32:39;;;;;;;;;;;;;;;;;;4935030;29;19925;-81
2022/07/25 01:35:04;;;;;;;;;;;;;;;;;;4949187;28;19918;-80
2022/07/25 01:37:30;;;;;;;;;;;;;;;;;;4933734;29;19919;-82
2022/07/25 01:39:55;;;;;;;;;;;;;;;;;;4935147;29;19915;-80
2022/07/25 01:42:20;;;;;;;;;;;;;;;;;;4935081;29;19919;-82
2022/07/25 01:44:46;;;;;;;;;;;;;;;;;;4949404;28;19923;-80
2022/07/25 01:47:11;;;;;;;;;;;;;;;;;;4936223;29;19914;-80
2022/07/25 01:49:36;;;;;;;;;;;;;;;;;;4939077;29;20466;-81
2022/07/25 01:52:02;;;;;;;;;;;;;;;;;;4939154;29;20012;-81
2022/07/25 01:54:27;;;;;;;;;;;;;;;;;;4938140;29;19970;-81
2022/07/25 01:56:52;;;;;;;;;;;;;;;;;;4937774;29;20291;-82
2022/07/25 01:59:18;;;;;;;;;;;;;;;;;;4938917;29;19915;-81
2022/07/25 02:01:43;;;;;;;;;;;;;;;;;;4938036;29;19941;-80
2022/07/25 02:04:09;;;;;;;;;;;;;;;;;;4938599;29;20047;-79
2022/07/25 02:06:34;;;;;;;;;;;;;;;;;;4953391;29;19914;-80
2022/07/25 02:09:00;;;;;;;;;;;;;;;;;;4953035;29;20368;-79
2022/07/25 02:11:25;;;;;;;;;;;;;;;;;;4953631;29;19915;-80
2022/07/25 02:13:50;;;;;;;;;;;;;;;;;;4953056;28;19919;-82
2022/07/25 02:16:16;;;;;;;;;;;;;;;;;;4938947;29;20018;-81
2022/07/25 02:18:42;;;;;;;;;;;;;;;;;;4953348;29;19962;-79
2022/07/25 02:21:09;;;;;;;;;;;;;;;;;;4938501;29;20283;-80
2022/07/25 02:23:34;;;;;;;;;;;;;;;;;;4953159;29;19986;-80
2022/07/25 02:26:00;;;;;;;;;;;;;;;;;;4952383;29;20390;-80
2022/07/25 02:28:25;;;;;;;;;;;;;;;;;;4938408;29;20025;-80
2022/07/25 02:30:50;;;;;;;;;;;;;;;;;;4938245;29;20401;-80
2022/07/25 02:33:16;;;;;;;;;;;;;;;;;;4953079;29;19921;-79
2022/07/25 02:35:41;;;;;;;;;;;;;;;;;;4938432;29;20453;-80
2022/07/25 02:38:06;;;;;;;;;;;;;;;;;;4937217;29;19922;-80
2022/07/25 02:40:32;;;;;;;;;;;;;;;;;;4938938;29;20026;-79
2022/07/25 02:42:57;;;;;;;;;;;;;;;;;;4938254;29;19934;-79
2022/07/25 02:45:22;;;;;;;;;;;;;;;;;;4940602;29;19925;-80
2022/07/25 02:47:48;;;;;;;;;;;;;;;;;;4966725;28;19922;-80
2022/07/25 02:50:13;;;;;;;;;;;;;;;;;;4958421;29;19903;-80
2022/07/25 02:52:39;;;;;;;;;;;;;;;;;;4956912;29;19918;-79
2022/07/25 02:55:04;;;;;;;;;;;;;;;;;;4951272;29;19915;-80
2022/07/25 02:57:29;;;;;;;;;;;;;;;;;;4960011;29;20000;-79
2022/07/25 02:59:55;;;;;;;;;;;;;;;;;;4937991;29;20334;-81
2022/07/25 03:02:20;;;;;;;;;;;;;;;;;;4952285;28;19919;-81
2022/07/25 03:04:46;;;;;;;;;;;;;;;;;;4952212;28;19922;-81
2022/07/25 03:07:11;;;;;;;;;;;;;;;;;;4936510;29;19915;-79
2022/07/25 03:09:36;;;;;;;;;;;;;;;;;;4936586;29;19910;-79
2022/07/25 03:12:02;;;;;;;;;;;;;;;;;;4937523;29;19915;-78
2022/07/25 03:14:27;;;;;;;;;;;;;;;;;;4937865;29;20406;-79
2022/07/25 03:16:52;;;;;;;;;;;;;;;;;;4936525;29;19915;-78
2022/07/25 03:19:18;;;;;;;;;;;;;;;;;;4937371;29;19915;-79
2022/07/25 03:21:44;;;;;;;;;;;;;;;;;;4937254;29;20013;-78
2022/07/25 03:24:10;;;;;;;;;;;;;;;;;;4937123;29;19914;-80
2022/07/25 03:26:35;;;;;;;;;;;;;;;;;;4937208;29;19915;-78
2022/07/25 03:29:00;;;;;;;;;;;;;;;;;;4937266;29;19919;-78
2022/07/25 03:31:27;;;;;;;;;;;;;;;;;;4951002;28;19915;-80
2022/07/25 03:33:52;;;;;;;;;;;;;;;;;;4936709;29;19926;-79
2022/07/25 03:36:18;;;;;;;;;;;;;;;;;;4937427;29;19915;-79
2022/07/25 03:38:43;;;;;;;;;;;;;;;;;;4937193;29;19958;-80
2022/07/25 03:41:08;;;;;;;;;;;;;;;;;;4951876;28;19921;-80
2022/07/25 03:43:34;;;;;;;;;;;;;;;;;;4936791;29;20498;-81
2022/07/25 03:45:59;;;;;;;;;;;;;;;;;;4937119;29;19926;-81
2022/07/25 03:48:24;;;;;;;;;;;;;;;;;;4951123;29;19922;-80
2022/07/25 03:50:50;;;;;;;;;;;;;;;;;;4937051;29;20461;-82
2022/07/25 03:53:15;;;;;;;;;;;;;;;;;;4951290;29;19925;-81
2022/07/25 03:55:40;;;;;;;;;;;;;;;;;;4936672;29;19973;-81
2022/07/25 03:58:06;;;;;;;;;;;;;;;;;;4936808;29;20412;-80
2022/07/25 04:00:31;;;;;;;;;;;;;;;;;;4936883;29;19922;-81
2022/07/25 04:02:57;;;;;;;;;;;;;;;;;;4934802;29;20391;-80
2022/07/25 04:05:22;;;;;;;;;;;;;;;;;;4916556;29;20467;-81
2022/07/25 04:07:47;;;;;;;;;;;;;;;;;;4917715;29;19963;-80
2022/07/25 04:10:13;;;;;;;;;;;;;;;;;;4917506;29;19922;-81
2022/07/25 04:12:38;;;;;;;;;;;;;;;;;;4931979;29;20294;-81
2022/07/25 04:15:03;;;;;;;;;;;;;;;;;;4917458;29;19922;-81
2022/07/25 04:17:29;;;;;;;;;;;;;;;;;;4917456;29;19915;-81
2022/07/25 04:19:54;;;;;;;;;;;;;;;;;;4918850;29;19915;-80
2022/07/25 04:22:19;;;;;;;;;;;;;;;;;;4936071;29;20271;-81
2022/07/25 04:24:45;;;;;;;;;;;;;;;;;;4934403;29;19915;-82
2022/07/25 04:27:10;;;;;;;;;;;;;;;;;;4935813;29;19997;-81
2022/07/25 04:29:35;;;;;;;;;;;;;;;;;;4919266;29;19937;-82
2022/07/25 04:32:01;;;;;;;;;;;;;;;;;;4936220;29;20008;-82
2022/07/25 04:34:26;;;;;;;;;;;;;;;;;;4935890;29;19938;-80
2022/07/25 04:36:51;;;;;;;;;;;;;;;;;;4936172;29;19942;-81
2022/07/25 04:39:17;;;;;;;;;;;;;;;;;;4935612;29;19915;-81
2022/07/25 04:41:42;;;;;;;;;;;;;;;;;;4950636;29;19915;-82
2022/07/25 04:44:09;;;;;;;;;;;;;;;;;;4933787;29;20280;-80
2022/07/25 04:46:35;;;;;;;;;;;;;;;;;;4934437;29;19943;-81
2022/07/25 04:49:00;;;;;;;;;;;;;;;;;;4935598;29;19961;-82
2022/07/25 04:51:25;;;;;;;;;;;;;;;;;;4935466;29;19954;-81
2022/07/25 04:53:50;;;;;;;;;;;;;;;;;;4934022;29;19967;-80
2022/07/25 04:56:16;;;;;;;;;;;;;;;;;;4918824;29;19919;-81
2022/07/25 04:58:41;;;;;;;;;;;;;;;;;;4931283;29;20409;-81
2022/07/25 05:01:07;;;;;;;;;;;;;;;;;;4916465;29;20028;-80
2022/07/25 05:03:32;;;;;;;;;;;;;;;;;;4916419;29;19962;-80
2022/07/25 05:05:57;;;;;;;;;;;;;;;;;;4931059;29;19915;-81
2022/07/25 05:08:23;;;;;;;;;;;;;;;;;;4931072;29;20014;-81
2022/07/25 05:10:48;;;;;;;;;;;;;;;;;;4916460;29;20005;-82
2022/07/25 05:13:14;;;;;;;;;;;;;;;;;;4940753;29;19963;-80
2022/07/25 05:15:39;;;;;;;;;;;;;;;;;;4917262;29;20371;-81
2022/07/25 05:18:04;;;;;;;;;;;;;;;;;;4916559;29;19915;-81
2022/07/25 05:20:30;;;;;;;;;;;;;;;;;;4931059;29;19919;-80
2022/07/25 05:22:55;;;;;;;;;;;;;;;;;;4914771;29;20001;-81
2022/07/25 05:25:21;;;;;;;;;;;;;;;;;;4916111;29;20298;-82
2022/07/25 05:27:46;;;;;;;;;;;;;;;;;;4916171;29;20006;-82
2022/07/25 05:30:12;;;;;;;;;;;;;;;;;;4940826;29;19931;-81
2022/07/25 05:32:37;;;;;;;;;;;;;;;;;;4949577;29;20014;-81
2022/07/25 05:35:02;;;;;;;;;;;;;;;;;;4934078;29;19919;-82
2022/07/25 05:37:28;;;;;;;;;;;;;;;;;;4935419;29;19918;-82
2022/07/25 05:39:53;;;;;;;;;;;;;;;;;;4949774;29;19934;-81
2022/07/25 05:42:19;;;;;;;;;;;;;;;;;;4949539;29;19915;-80
2022/07/25 05:44:44;;;;;;;;;;;;;;;;;;4933896;29;19915;-79
2022/07/25 05:47:09;;;;;;;;;;;;;;;;;;4935324;29;20002;-83
2022/07/25 05:49:35;;;;;;;;;;;;;;;;;;4949802;29;19914;-80
2022/07/25 05:52:01;;;;;;;;;;;;;;;;;;4934206;29;19919;-80
2022/07/25 05:54:26;;;;;;;;;;;;;;;;;;4949345;28;19922;-78
2022/07/25 05:56:51;;;;;;;;;;;;;;;;;;4934650;29;19922;-79
2022/07/25 05:59:17;;;;;;;;;;;;;;;;;;4934949;29;20294;-81
2022/07/25 06:01:43;;;;;;;;;;;;;;;;;;4934181;29;20010;-79
2022/07/25 06:04:08;;;;;;;;;;;;;;;;;;4934994;29;19915;-81
2022/07/25 06:06:34;;;;;;;;;;;;;;;;;;4934606;29;20283;-82
2022/07/25 06:08:59;;;;;;;;;;;;;;;;;;4933490;29;19958;-80
2022/07/25 06:11:26;;;;;;;;;;;;;;;;;;4948861;28;19962;-80
2022/07/25 06:13:52;;;;;;;;;;;;;;;;;;4934039;29;20045;-80
2022/07/25 06:16:17;;;;;;;;;;;;;;;;;;4933156;29;20569;-80
2022/07/25 06:18:42;;;;;;;;;;;;;;;;;;4933320;29;19915;-81
2022/07/25 06:21:08;;;;;;;;;;;;;;;;;;4949296;29;20351;-83
2022/07/25 06:23:33;;;;;;;;;;;;;;;;;;4934063;29;20371;-82
2022/07/25 06:25:59;;;;;;;;;;;;;;;;;;4933534;29;20302;-80
2022/07/25 06:28:24;;;;;;;;;;;;;;;;;;4933391;29;20411;-81
2022/07/25 06:30:49;;;;;;;;;;;;;;;;;;4949050;28;19915;-81
2022/07/25 06:33:15;;;;;;;;;;;;;;;;;;4949496;28;20395;-82
2022/07/25 06:35:40;;;;;;;;;;;;;;;;;;4937617;29;19922;-80
2022/07/25 06:38:05;;;;;;;;;;;;;;;;;;4952573;29;19962;-79
2022/07/25 06:40:31;;;;;;;;;;;;;;;;;;4937361;29;20382;-81
2022/07/25 06:42:56;;;;;;;;;;;;;;;;;;4936788;29;20005;-80
2022/07/25 06:45:22;;;;;;;;;;;;;;;;;;4936261;29;19950;-79
2022/07/25 06:47:47;;;;;;;;;;;;;;;;;;4938106;29;19969;-80
2022/07/25 06:50:12;;;;;;;;;;;;;;;;;;4936790;29;19914;-80
2022/07/25 06:52:38;;;;;;;;;;;;;;;;;;4936127;29;19919;-79
2022/07/25 06:55:03;;;;;;;;;;;;;;;;;;4937996;29;20314;-79
2022/07/25 06:57:29;;;;;;;;;;;;;;;;;;4936755;29;20150;-80
2022/07/25 06:59:54;;;;;;;;;;;;;;;;;;4935385;29;19914;-80
2022/07/25 07:02:19;;;;;;;;;;;;;;;;;;4952208;28;19921;-81
2022/07/25 07:04:45;;;;;;;;;;;;;;;;;;4937328;29;20385;-81
2022/07/25 07:07:11;;;;;;;;;;;;;;;;;;4952558;28;19919;-81
2022/07/25 07:09:36;;;;;;;;;;;;;;;;;;4952690;29;20267;-82
2022/07/25 07:12:02;;;;;;;;;;;;;;;;;;4937751;29;19915;-82
2022/07/25 07:14:27;;;;;;;;;;;;;;;;;;4932278;29;20291;-81
2022/07/25 07:16:52;;;;;;;;;;;;;;;;;;4918470;29;20438;-81
2022/07/25 07:19:18;;;;;;;;;;;;;;;;;;4917563;29;20022;-80
2022/07/25 07:21:44;;;;;;;;;;;;;;;;;;4933163;29;20017;-80
2022/07/25 07:24:09;;;;;;;;;;;;;;;;;;4917620;29;19915;-80
2022/07/25 07:26:35;;;;;;;;;;;;;;;;;;4933629;29;19911;-81
2022/07/25 07:29:01;;;;;;;;;;;;;;;;;;4932979;29;19981;-80
2022/07/25 07:31:27;;;;;;;;;;;;;;;;;;4937366;29;19922;-79
2022/07/25 07:33:52;;;;;;;;;;;;;;;;;;4954267;28;19927;-81
2022/07/25 07:36:17;;;;;;;;;;;;;;;;;;4954889;29;20326;-82
2022/07/25 07:38:43;;;;;;;;;;;;;;;;;;4938224;29;20021;-81
2022/07/25 07:41:09;;;;;;;;;;;;;;;;;;4937563;29;19915;-82
2022/07/25 07:43:34;;;;;;;;;;;;;;;;;;4937962;29;19915;-80
2022/07/25 07:46:00;;;;;;;;;;;;;;;;;;4935383;29;19919;-83
2022/07/25 07:48:25;;;;;;;;;;;;;;;;;;4922439;29;19915;-79
2022/07/25 07:50:50;;;;;;;;;;;;;;;;;;4933150;29;20397;-82
2022/07/25 07:53:16;;;;;;;;;;;;;;;;;;4917134;29;19919;-79
2022/07/25 07:55:45;;;;;;;;;;;;;;;;;;4933378;29;20339;-81
2022/07/25 07:58:10;;;;;;;;;;;;;;;;;;4918715;29;19920;-80
2022/07/25 08:00:38;;;;;;;;;;;;;;;;;;4918759;29;19985;-81
2022/07/25 08:03:03;;;;;;;;;;;;;;;;;;4920191;29;19946;-80
2022/07/25 08:05:29;;;;;;;;;;;;;;;;;;4937786;29;19915;-78
2022/07/25 08:07:54;;;;;;;;;;;;;;;;;;4936990;29;19922;-79
2022/07/25 08:10:19;;;;;;;;;;;;;;;;;;4937744;29;19915;-80
2022/07/25 08:12:45;;;;;;;;;;;;;;;;;;4937266;29;19969;-81
2022/07/25 08:15:10;;;;;;;;;;;;;;;;;;4935247;29;19915;-80
2022/07/25 08:17:36;;;;;;;;;;;;;;;;;;4937327;29;19971;-79
2022/07/25 08:20:06;;;;;;;;;;;;;;;;;;4935703;29;19914;-78
2022/07/25 08:22:31;;;;;;;;;;;;;;;;;;4950022;29;20390;-81
2022/07/25 08:24:57;;;;;;;;;;;;;;;;;;4935657;29;19938;-81
2022/07/25 08:27:22;;;;;;;;;;;;;;;;;;4937813;29;19946;-79
2022/07/25 08:29:47;;;;;;;;;;;;;;;;;;4941677;29;19922;-82
2022/07/25 08:32:13;;;;;;;;;;;;;;;;;;4946612;29;19923;-81
2022/07/25 08:34:38;;;;;;;;;;;;;;;;;;4950998;29;19919;-81
2022/07/25 08:37:04;;;;;;;;;;;;;;;;;;4949843;29;19939;-82
2022/07/25 08:39:29;;;;;;;;;;;;;;;;;;4930010;29;19965;-79
2022/07/25 08:41:55;;;;;;;;;;;;;;;;;;4945229;29;19974;-81
2022/07/25 08:44:20;;;;;;;;;;;;;;;;;;4936541;29;19925;-81
2022/07/25 08:46:45;;;;;;;;;;;;;;;;;;4931421;29;19915;-83
2022/07/25 08:49:11;;;;;;;;;;;;;;;;;;4918961;29;19919;-83
2022/07/25 08:51:36;;;;;;;;;;;;;;;;;;4934488;29;20006;-82
2022/07/25 08:54:01;;;;;;;;;;;;;;;;;;4947159;28;19977;-80
2022/07/25 08:56:27;;;;;;;;;;;;;;;;;;4934848;29;20018;-80
2022/07/25 08:58:52;;;;;;;;;;;;;;;;;;4934048;29;19970;-80
2022/07/25 09:01:17;;;;;;;;;;;;;;;;;;4935157;29;19915;-79
2022/07/25 09:03:43;;;;;;;;;;;;;;;;;;4934710;29;19915;-80
2022/07/25 09:06:08;;;;;;;;;;;;;;;;;;4929782;29;20367;-80
2022/07/25 09:08:34;;;;;;;;;;;;;;;;;;4919542;29;20390;-81
2022/07/25 09:10:59;;;;;;;;;;;;;;;;;;4934061;29;19966;-80
2022/07/25 09:13:24;;;;;;;;;;;;;;;;;;4934672;29;20010;-80
2022/07/25 09:15:50;;;;;;;;;;;;;;;;;;4930549;29;19914;-82
2022/07/25 09:18:16;;;;;;;;;;;;;;;;;;4954262;29;19940;-83
2022/07/25 09:20:41;;;;;;;;;;;;;;;;;;4952836;28;19922;-82
2022/07/25 09:23:07;;;;;;;;;;;;;;;;;;4954344;28;19919;-82
2022/07/25 09:25:32;;;;;;;;;;;;;;;;;;4952059;28;20307;-81
2022/07/25 09:27:58;;;;;;;;;;;;;;;;;;4950296;28;19915;-83
2022/07/25 09:30:23;;;;;;;;;;;;;;;;;;4934556;29;19915;-78
2022/07/25 09:32:48;;;;;;;;;;;;;;;;;;4927690;29;20289;-78
2022/07/25 09:35:14;;;;;;;;;;;;;;;;;;4930183;29;19943;-78
2022/07/25 09:37:39;;;;;;;;;;;;;;;;;;4933432;29;20461;-79
2022/07/25 09:40:05;;;;;;;;;;;;;;;;;;4934753;29;19915;-77
2022/07/25 09:42:36;;;;;;;;;;;;;;;;;;4934377;29;20306;-77
2022/07/25 09:45:02;;;;;;;;;;;;;;;;;;4921360;29;19962;-77
2022/07/25 09:47:27;;;;;;;;;;;;;;;;;;4945813;29;19915;-78
2022/07/25 09:49:53;;;;;;;;;;;;;;;;;;4939562;29;20311;-77
2022/07/25 09:52:18;;;;;;;;;;;;;;;;;;4926553;29;20236;-78
2022/07/25 09:54:43;;;;;;;;;;;;;;;;;;4924669;29;20338;-78
2022/07/25 09:57:09;;;;;;;;;;;;;;;;;;4937846;28;19930;-78
2022/07/25 09:59:34;;;;;;;;;;;;;;;;;;4932500;29;20006;-78
2022/07/25 10:01:59;;;;;;;;;;;;;;;;;;4918702;29;19973;-79
2022/07/25 10:04:25;;;;;;;;;;;;;;;;;;4925529;29;20025;-80
2022/07/25 10:06:50;;;;;;;;;;;;;;;;;;4941271;29;20395;-79
2022/07/25 10:09:15;;;;;;;;;;;;;;;;;;4921645;29;19915;-78
2022/07/25 10:11:41;;;;;;;;;;;;;;;;;;4933199;29;19946;-79
2022/07/25 10:14:06;;;;;;;;;;;;;;;;;;4922463;29;20475;-79
2022/07/25 10:16:32;;;;;;;;;;;;;;;;;;4929993;29;19919;-79
2022/07/25 10:18:57;;;;;;;;;;;;;;;;;;4931356;29;19915;-78
2022/07/25 10:21:22;;;;;;;;;;;;;;;;;;4921906;29;19922;-78
2022/07/25 10:23:48;;;;;;;;;;;;;;;;;;4931047;28;19996;-78
2022/07/25 10:26:14;;;;;;;;;;;;;;;;;;4930972;29;20021;-77
2022/07/25 10:28:40;;;;;;;;;;;;;;;;;;4928836;29;19911;-79
2022/07/25 10:31:05;;;;;;;;;;;;;;;;;;4937444;29;19934;-78
2022/07/25 10:33:31;;;;;;;;;;;;;;;;;;4946546;28;19943;-78
2022/07/25 10:35:56;;;;;;;;;;;;;;;;;;4934913;29;19934;-77
2022/07/25 10:38:21;;;;;;;;;;;;;;;;;;4934924;29;20358;-76
2022/07/25 10:40:47;;;;;;;;;;;;;;;;;;4935967;29;19915;-77
2022/07/25 10:43:12;;;;;;;;;;;;;;;;;;4917111;29;19963;-78
2022/07/25 10:45:38;;;;;;;;;;;;;;;;;;4936109;29;20397;-78
2022/07/25 10:48:03;;;;;;;;;;;;;;;;;;4937125;29;20290;-78
2022/07/25 10:50:29;;;;;;;;;;;;;;;;;;4930521;29;19922;-78
2022/07/25 10:52:54;;;;;;;;;;;;;;;;;;4929502;29;20379;-78
2022/07/25 10:55:19;;;;;;;;;;;;;;;;;;4931347;29;20355;-77
2022/07/25 10:57:45;;;;;;;;;;;;;;;;;;4916487;29;20313;-77
2022/07/25 11:00:10;;;;;;;;;;;;;;;;;;4936837;29;19945;-78
2022/07/25 11:02:36;;;;;;;;;;;;;;;;;;4928654;29;19915;-77
2022/07/25 11:05:01;;;;;;;;;;;;;;;;;;4936958;29;19925;-78
2022/07/25 11:07:27;;;;;;;;;;;;;;;;;;4932237;29;20198;-78
2022/07/25 11:09:52;;;;;;;;;;;;;;;;;;4921305;29;19922;-78
2022/07/25 11:12:18;;;;;;;;;;;;;;;;;;4932500;29;19915;-77
2022/07/25 11:14:43;;;;;;;;;;;;;;;;;;4925003;29;19915;-79
2022/07/25 11:17:09;;;;;;;;;;;;;;;;;;4936949;29;19922;-78
2022/07/25 11:19:34;;;;;;;;;;;;;;;;;;4935483;29;20000;-78
2022/07/25 11:21:59;;;;;;;;;;;;;;;;;;4936692;29;19915;-79
2022/07/25 11:24:25;;;;;;;;;;;;;;;;;;4936392;29;19943;-79
2022/07/25 11:26:50;;;;;;;;;;;;;;;;;;4936673;29;19923;-78
2022/07/25 11:29:16;;;;;;;;;;;;;;;;;;4951151;29;19915;-77
2022/07/25 11:31:41;;;;;;;;;;;;;;;;;;4936262;29;19933;-79
2022/07/25 11:34:06;;;;;;;;;;;;;;;;;;4929889;29;20389;-78
2022/07/25 11:36:32;;;;;;;;;;;;;;;;;;4951306;29;20001;-79
2022/07/25 11:38:57;;;;;;;;;;;;;;;;;;4935120;29;19985;-79
2022/07/25 11:41:23;;;;;;;;;;;;;;;;;;4937370;29;20031;-79
2022/07/25 11:43:48;;;;;;;;;;;;;;;;;;4933091;29;20366;-79
2022/07/25 11:46:14;;;;;;;;;;;;;;;;;;4947158;29;19927;-79
2022/07/25 11:48:39;;;;;;;;;;;;;;;;;;4935863;29;19921;-81
2022/07/25 11:51:04;;;;;;;;;;;;;;;;;;4935845;29;20391;-82
2022/07/25 11:53:30;;;;;;;;;;;;;;;;;;4928784;28;19985;-86
2022/07/25 11:55:55;;;;;;;;;;;;;;;;;;4911116;29;19915;-83
2022/07/25 11:58:20;;;;;;;;;;;;;;;;;;4917547;29;20302;-84
2022/07/25 12:00:46;;;;;;;;;;;;;;;;;;4935877;29;20115;-84
2022/07/25 12:03:11;;;;;;;;;;;;;;;;;;4928288;29;20295;-85
2022/07/25 12:05:37;;;;;;;;;;;;;;;;;;4928748;29;19919;-83
2022/07/25 12:08:02;;;;;;;;;;;;;;;;;;4935717;29;19961;-83
2022/07/25 12:10:27;;;;;;;;;;;;;;;;;;4935847;29;19921;-82
2022/07/25 12:12:53;;;;;;;;;;;;;;;;;;4934283;29;20017;-82
2022/07/25 12:15:18;;;;;;;;;;;;;;;;;;4927332;29;19950;-84
2022/07/25 12:17:44;;;;;;;;;;;;;;;;;;4931432;29;19962;-82
2022/07/25 12:20:09;;;;;;;;;;;;;;;;;;4933785;29;20015;-81
2022/07/25 12:22:35;;;;;;;;;;;;;;;;;;4950392;29;19915;-82
2022/07/25 12:25:00;;;;;;;;;;;;;;;;;;4961504;29;19947;-82
2022/07/25 12:27:26;;;;;;;;;;;;;;;;;;4965406;29;19911;-82
2022/07/25 12:29:52;;;;;;;;;;;;;;;;;;4972078;28;19914;-80
2022/07/25 12:32:30;;;;;;;;;;;;;;;;;;4952282;28;19962;-89
2022/07/25 12:34:59;;;;;;;;;;;;;;;;;;4947892;28;19927;-87
2022/07/25 12:37:30;;;;;;;;;;;;;;;;;;5113293;23;19910;-85
2022/07/25 12:39:55;;;;;;;;;;;;;;;;;;4996394;23;19965;-80
2022/07/25 12:42:21;;;;;;;;;;;;;;;;;;4966578;29;19982;-82
2022/07/25 12:44:46;;;;;;;;;;;;;;;;;;4941981;29;19922;-82
2022/07/25 12:47:12;;;;;;;;;;;;;;;;;;4931939;29;19932;-81
2022/07/25 12:49:37;;;;;;;;;;;;;;;;;;4948883;29;19914;-82
2022/07/25 12:52:03;;;;;;;;;;;;;;;;;;4955077;29;19915;-83
2022/07/25 12:54:28;;;;;;;;;;;;;;;;;;4922095;29;20228;-83
2022/07/25 12:56:53;;;;;;;;;;;;;;;;;;4954979;29;19921;-82
2022/07/25 12:59:19;;;;;;;;;;;;;;;;;;4954416;29;20390;-83
2022/07/25 13:01:44;;;;;;;;;;;;;;;;;;4926480;29;19945;-84
2022/07/25 13:04:09;;;;;;;;;;;;;;;;;;4953834;28;20699;-84
2022/07/25 13:06:35;;;;;;;;;;;;;;;;;;4954326;29;20386;-82
2022/07/25 13:09:00;;;;;;;;;;;;;;;;;;4954494;29;19976;-82
2022/07/25 13:11:26;;;;;;;;;;;;;;;;;;4957093;29;19950;-83
2022/07/25 13:13:51;;;;;;;;;;;;;;;;;;4930027;29;19969;-83
2022/07/25 13:16:17;;;;;;;;;;;;;;;;;;4941425;29;20283;-84
2022/07/25 13:18:43;;;;;;;;;;;;;;;;;;4930322;29;19922;-84
2022/07/25 13:21:08;;;;;;;;;;;;;;;;;;4941107;29;19921;-84
2022/07/25 13:23:34;;;;;;;;;;;;;;;;;;4924765;28;20371;-83
2022/07/25 13:26:00;;;;;;;;;;;;;;;;;;4939768;29;20003;-84
2022/07/25 13:28:25;;;;;;;;;;;;;;;;;;4949648;29;19969;-84
2022/07/25 13:30:50;;;;;;;;;;;;;;;;;;4935030;29;19933;-84
2022/07/25 13:33:16;;;;;;;;;;;;;;;;;;4934963;29;19930;-84
2022/07/25 13:35:41;;;;;;;;;;;;;;;;;;4954740;29;19914;-82
2022/07/25 13:38:06;;;;;;;;;;;;;;;;;;4931286;29;19946;-80
2022/07/25 13:40:32;;;;;;;;;;;;;;;;;;4962179;29;19919;-83
2022/07/25 13:42:57;;;;;;;;;;;;;;;;;;4937460;29;19914;-82
2022/07/25 13:45:23;;;;;;;;;;;;;;;;;;4946704;29;19918;-83
2022/07/25 13:47:48;;;;;;;;;;;;;;;;;;4962004;29;19933;-86
2022/07/25 13:50:14;;;;;;;;;;;;;;;;;;4962314;29;20010;-86
2022/07/25 13:52:39;;;;;;;;;;;;;;;;;;4947219;29;20386;-85
2022/07/25 13:55:09;;;;;;;;;;;;;;;;;;4938052;29;19915;-85
2022/07/25 13:57:34;;;;;;;;;;;;;;;;;;4959135;29;19934;-89
2022/07/25 14:00:02;;;;;;;;;;;;;;;;;;4938649;29;19954;-89
2022/07/25 14:02:30;;;;;;;;;;;;;;;;;;4954875;29;19930;-86
2022/07/25 14:04:55;;;;;;;;;;;;;;;;;;4937815;29;19965;-88
2022/07/25 14:07:21;;;;;;;;;;;;;;;;;;4954501;29;19957;-87
2022/07/25 14:09:47;;;;;;;;;;;;;;;;;;4921977;29;20346;-88
2022/07/25 14:12:12;;;;;;;;;;;;;;;;;;4935524;29;19914;-87
2022/07/25 14:14:38;;;;;;;;;;;;;;;;;;4932211;29;19919;-91
2022/07/25 14:17:03;;;;;;;;;;;;;;;;;;4921579;29;19921;-91
2022/07/25 14:19:28;;;;;;;;;;;;;;;;;;4933604;29;19929;-90
2022/07/25 14:21:54;;;;;;;;;;;;;;;;;;4955408;29;19942;-91
2022/07/25 14:24:19;;;;;;;;;;;;;;;;;;4903491;29;19914;-90
2022/07/25 14:26:45;;;;;;;;;;;;;;;;;;4934460;29;19914;-87
2022/07/25 14:29:11;;;;;;;;;;;;;;;;;;4921917;29;19918;-88
2022/07/25 14:31:36;;;;;;;;;;;;;;;;;;4921137;29;19922;-86
2022/07/25 14:34:02;;;;;;;;;;;;;;;;;;4954525;29;20013;-89
2022/07/25 14:36:27;;;;;;;;;;;;;;;;;;4954731;29;19922;-91
2022/07/25 14:38:52;;;;;;;;;;;;;;;;;;4921379;29;19985;-87
2022/07/25 14:41:18;;;;;;;;;;;;;;;;;;4936337;29;20334;-89
2022/07/25 14:43:43;;;;;;;;;;;;;;;;;;4933396;29;19923;-86
2022/07/25 14:46:09;;;;;;;;;;;;;;;;;;4935873;29;19915;-89
2022/07/25 14:48:34;;;;;;;;;;;;;;;;;;4933553;29;19915;-88
2022/07/25 14:50:59;;;;;;;;;;;;;;;;;;4940189;28;19978;-86
2022/07/25 14:53:25;;;;;;;;;;;;;;;;;;4932111;28;20482;-87
2022/07/25 14:55:50;;;;;;;;;;;;;;;;;;4936791;29;20367;-87
2022/07/25 14:58:15;;;;;;;;;;;;;;;;;;4924126;29;19914;-86
2022/07/25 15:00:42;;;;;;;;;;;;;;;;;;4935066;29;19958;-88
2022/07/25 15:03:08;;;;;;;;;;;;;;;;;;4937368;29;20381;-89
2022/07/25 15:05:34;;;;;;;;;;;;;;;;;;4940847;29;19922;-92
2022/07/25 15:08:00;;;;;;;;;;;;;;;;;;4909785;29;19980;-93
2022/07/25 15:10:25;;;;;;;;;;;;;;;;;;4941625;29;19914;-92
2022/07/25 15:12:50;;;;;;;;;;;;;;;;;;4956785;29;19918;-90
2022/07/25 15:15:16;;;;;;;;;;;;;;;;;;4923402;29;19922;-91
2022/07/25 15:17:41;;;;;;;;;;;;;;;;;;4943059;29;20334;-90
2022/07/25 15:20:07;;;;;;;;;;;;;;;;;;4926387;29;19981;-91
2022/07/25 15:22:32;;;;;;;;;;;;;;;;;;4912876;29;20009;-93
2022/07/25 15:24:58;;;;;;;;;;;;;;;;;;4927059;29;19942;-90
2022/07/25 15:27:23;;;;;;;;;;;;;;;;;;4942234;29;20021;-90
2022/07/25 15:29:49;;;;;;;;;;;;;;;;;;4917794;29;19955;-91
2022/07/25 15:32:14;;;;;;;;;;;;;;;;;;4929267;29;19946;-93
2022/07/25 15:34:40;;;;;;;;;;;;;;;;;;4929189;29;20297;-92
2022/07/25 15:37:05;;;;;;;;;;;;;;;;;;4925321;29;20306;-93
2022/07/25 15:39:30;;;;;;;;;;;;;;;;;;4925146;29;19922;-89
2022/07/25 15:41:56;;;;;;;;;;;;;;;;;;4941986;29;19914;-90
2022/07/25 15:44:21;;;;;;;;;;;;;;;;;;4923503;29;20354;-93
2022/07/25 15:46:47;;;;;;;;;;;;;;;;;;4941076;29;19923;-91
2022/07/25 15:49:12;;;;;;;;;;;;;;;;;;4924106;29;19915;-92
2022/07/25 15:51:37;;;;;;;;;;;;;;;;;;4939260;29;19922;-87
2022/07/25 15:54:03;;;;;;;;;;;;;;;;;;4947067;28;19926;-88
2022/07/25 15:56:28;;;;;;;;;;;;;;;;;;4908008;29;19915;-89
2022/07/25 15:58:54;;;;;;;;;;;;;;;;;;4908828;29;20358;-89
2022/07/25 16:01:19;;;;;;;;;;;;;;;;;;4909360;29;19914;-88
2022/07/25 16:03:45;;;;;;;;;;;;;;;;;;4924009;29;19970;-87
2022/07/25 16:06:10;;;;;;;;;;;;;;;;;;4907681;29;19957;-87
2022/07/25 16:08:36;;;;;;;;;;;;;;;;;;4936521;29;19958;-86
2022/07/25 16:11:01;;;;;;;;;;;;;;;;;;4953371;29;19915;-86
2022/07/25 16:13:28;;;;;;;;;;;;;;;;;;4938525;28;19923;-85
2022/07/25 16:15:54;;;;;;;;;;;;;;;;;;4923358;29;20014;-88
2022/07/25 16:18:19;;;;;;;;;;;;;;;;;;4923632;29;20457;-90
2022/07/25 16:20:45;;;;;;;;;;;;;;;;;;4926233;29;19954;-89
2022/07/25 16:23:10;;;;;;;;;;;;;;;;;;4924239;29;19914;-89
2022/07/25 16:25:36;;;;;;;;;;;;;;;;;;4938518;29;19977;-89
2022/07/25 16:28:01;;;;;;;;;;;;;;;;;;4939010;29;19918;-86
2022/07/25 16:30:26;;;;;;;;;;;;;;;;;;4920457;29;19922;-85
2022/07/25 16:32:52;;;;;;;;;;;;;;;;;;4936219;29;19987;-87